Time;durP1;ratioP1;P1;durP2;ratioP2;P2;SDS_P1;SDS_P2;PMS_P1;PMS_P2;Temp;Humidity;BMP_temperature;BMP_pressure;BME280_temperature;BME280_humidity;BME280_pressure;Samples;Min_cycle;Max_cycle;Signal;HPM_P1;HPM_P2
2023/10/27 00:01:05;;;;;;;43.53;27.17;;;9.90;90.90;;;;;;5014806;28;20045;-92
2023/10/27 00:03:31;;;;;;;41.75;26.20;;;10.00;90.90;;;;;;4998919;28;20060;-93
2023/10/27 00:05:56;;;;;;;42.28;25.95;;;9.90;90.90;;;;;;5018943;28;20101;-91
2023/10/27 00:08:22;;;;;;;42.95;26.67;;;10.00;90.90;;;;;;5029265;28;20041;-92
2023/10/27 00:10:48;;;;;;;40.92;24.92;;;9.90;90.90;;;;;;5030185;28;20139;-93
2023/10/27 00:13:13;;;;;;;42.05;25.98;;;9.90;90.90;;;;;;5000244;28;20045;-92
2023/10/27 00:15:39;;;;;;;41.05;25.27;;;10.10;91.00;;;;;;4997379;28;20570;-92
2023/10/27 00:18:05;;;;;;;39.40;24.92;;;10.00;91.10;;;;;;4997241;28;20499;-94
2023/10/27 00:20:31;;;;;;;44.00;24.25;;;10.00;91.00;;;;;;5013058;28;20073;-93
2023/10/27 00:22:57;;;;;;;40.28;25.10;;;10.00;91.00;;;;;;5013264;28;20312;-93
2023/10/27 00:25:24;;;;;;;38.25;23.05;;;9.90;90.90;;;;;;4996737;28;20486;-93
2023/10/27 00:27:50;;;;;;;40.47;23.85;;;9.90;90.90;;;;;;5013549;28;20041;-92
2023/10/27 00:30:16;;;;;;;37.63;24.45;;;9.90;90.90;;;;;;4996459;28;20034;-93
2023/10/27 00:32:42;;;;;;;42.08;25.52;;;9.90;90.90;;;;;;5013115;28;20138;-93
2023/10/27 00:35:09;;;;;;;38.33;23.88;;;10.40;91.10;;;;;;4996291;28;20073;-93
2023/10/27 00:37:35;;;;;;;35.47;23.60;;;9.90;91.00;;;;;;5012606;28;20034;-94
2023/10/27 00:40:01;;;;;;;39.95;24.50;;;9.90;91.20;;;;;;5012419;28;20068;-93
2023/10/27 00:42:27;;;;;;;37.08;22.88;;;9.90;91.00;;;;;;5012612;28;20030;-93
2023/10/27 00:44:53;;;;;;;42.35;25.00;;;9.90;91.00;;;;;;5012699;28;20379;-94
2023/10/27 00:47:18;;;;;;;41.45;25.10;;;9.90;91.00;;;;;;5012795;28;20037;-93
2023/10/27 00:49:45;;;;;;;42.03;24.90;;;9.90;91.00;;;;;;5012373;28;20096;-94
2023/10/27 00:52:14;;;;;;;37.53;24.15;;;10.00;91.10;;;;;;4996283;28;20042;-93
2023/10/27 00:54:41;;;;;;;44.67;25.58;;;10.00;91.10;;;;;;4992980;28;20088;-93
2023/10/27 00:57:07;;;;;;;40.35;24.40;;;10.00;91.10;;;;;;4993878;28;20042;-95
2023/10/27 00:59:34;;;;;;;43.50;25.83;;;10.00;91.30;;;;;;4977095;28;20042;-93
2023/10/27 01:01:59;;;;;;;46.20;27.38;;;10.00;91.10;;;;;;5006793;28;20077;-94
2023/10/27 01:04:25;;;;;;;39.63;25.30;;;10.00;91.30;;;;;;5012305;28;20505;-93
2023/10/27 01:06:52;;;;;;;41.28;26.05;;;10.10;91.10;;;;;;4995954;28;20042;-95
2023/10/27 01:09:18;;;;;;;44.78;25.65;;;10.00;91.10;;;;;;4996015;28;20038;-94
2023/10/27 01:11:45;;;;;;;43.10;24.67;;;10.00;91.10;;;;;;5012102;28;20099;-93
2023/10/27 01:14:11;;;;;;;43.00;25.85;;;10.00;91.10;;;;;;5012642;28;20099;-93
2023/10/27 01:16:37;;;;;;;40.45;24.70;;;10.00;91.10;;;;;;5012563;28;20486;-93
2023/10/27 01:19:02;;;;;;;44.92;25.58;;;10.00;91.10;;;;;;5012059;28;20091;-93
2023/10/27 01:21:28;;;;;;;43.45;25.00;;;10.50;91.30;;;;;;5012023;28;20037;-93
2023/10/27 01:23:54;;;;;;;43.00;24.45;;;10.00;91.10;;;;;;5012339;28;20046;-93
2023/10/27 01:26:19;;;;;;;45.42;25.75;;;10.00;91.20;;;;;;5012445;28;20395;-93
2023/10/27 01:28:45;;;;;;;38.65;24.05;;;10.00;91.20;;;;;;5012199;28;20037;-92
2023/10/27 01:31:10;;;;;;;39.75;24.95;;;10.00;91.20;;;;;;5012210;28;20068;-93
2023/10/27 01:33:37;;;;;;;41.30;23.77;;;10.00;91.20;;;;;;5012199;28;20034;-93
2023/10/27 01:36:03;;;;;;;42.05;24.27;;;10.10;91.20;;;;;;4996099;28;20088;-93
2023/10/27 01:38:29;;;;;;;44.10;25.73;;;10.10;91.20;;;;;;4995756;28;20038;-93
2023/10/27 01:40:54;;;;;;;40.88;24.40;;;10.10;91.20;;;;;;5012223;28;20664;-93
2023/10/27 01:43:20;;;;;;;43.53;24.83;;;10.00;91.20;;;;;;5013368;28;20552;-91
2023/10/27 01:45:45;;;;;;;44.72;25.17;;;9.80;91.10;;;;;;5009325;28;20038;-91
2023/10/27 01:48:11;;;;;;;41.00;24.30;;;10.10;91.20;;;;;;5014347;28;20040;-94
2023/10/27 01:50:36;;;;;;;42.60;25.50;;;10.10;91.20;;;;;;5012601;28;20084;-94
2023/10/27 01:53:02;;;;;;;44.40;25.35;;;10.00;91.10;;;;;;5014330;28;20148;-93
2023/10/27 01:55:29;;;;;;;42.08;23.73;;;10.00;91.10;;;;;;4988373;28;20048;-94
2023/10/27 01:57:54;;;;;;;36.15;21.90;;;10.00;91.10;;;;;;4984347;28;20030;-94
2023/10/27 02:00:20;;;;;;;43.75;25.13;;;10.00;91.10;;;;;;4996077;28;20030;-93
2023/10/27 02:02:46;;;;;;;39.63;23.55;;;10.10;91.10;;;;;;4995788;28;20176;-93
2023/10/27 02:05:12;;;;;;;41.40;24.88;;;10.00;91.10;;;;;;5012327;28;20081;-93
2023/10/27 02:07:38;;;;;;;44.30;24.60;;;10.00;91.10;;;;;;4995703;28;20077;-93
2023/10/27 02:10:04;;;;;;;45.35;24.60;;;10.10;91.10;;;;;;4995812;28;20057;-93
2023/10/27 02:12:30;;;;;;;43.30;24.27;;;10.00;91.10;;;;;;5012013;28;20046;-93
2023/10/27 02:14:56;;;;;;;43.97;24.17;;;10.00;91.10;;;;;;5012010;28;20049;-93
2023/10/27 02:17:21;;;;;;;44.58;24.23;;;10.00;91.10;;;;;;4995708;28;20068;-93
2023/10/27 02:19:47;;;;;;;44.63;25.13;;;10.00;91.00;;;;;;4996064;28;20100;-94
2023/10/27 02:22:13;;;;;;;49.45;26.92;;;10.00;91.00;;;;;;5012073;28;20046;-95
2023/10/27 02:24:40;;;;;;;44.85;25.85;;;10.00;91.10;;;;;;5013305;28;20034;-93
2023/10/27 02:27:05;;;;;;;43.72;25.00;;;10.00;91.00;;;;;;5018050;28;20124;-92
2023/10/27 02:29:31;;;;;;;44.10;24.35;;;10.00;91.10;;;;;;5018605;28;20457;-92
2023/10/27 02:31:56;;;;;;;41.28;24.27;;;10.00;91.10;;;;;;5016303;28;20061;-93
2023/10/27 02:34:22;;;;;;;43.35;24.70;;;10.10;91.10;;;;;;5017086;28;20042;-93
2023/10/27 02:36:48;;;;;;;48.15;25.70;;;10.10;91.10;;;;;;5008498;28;20041;-92
2023/10/27 02:39:13;;;;;;;49.40;27.23;;;10.10;91.10;;;;;;5029998;28;20038;-93
2023/10/27 02:41:39;;;;;;;47.47;24.67;;;10.10;91.10;;;;;;5015333;28;20120;-93
2023/10/27 02:44:05;;;;;;;40.28;24.27;;;10.10;91.10;;;;;;5015036;28;20410;-93
2023/10/27 02:46:32;;;;;;;47.70;24.27;;;10.00;91.10;;;;;;5014568;28;20038;-93
2023/10/27 02:48:58;;;;;;;48.13;26.42;;;10.10;91.10;;;;;;4998379;28;20376;-93
2023/10/27 02:51:25;;;;;;;44.92;25.77;;;10.10;91.10;;;;;;4998459;28;20092;-93
2023/10/27 02:53:50;;;;;;;42.75;24.00;;;10.10;91.10;;;;;;5014593;28;20065;-94
2023/10/27 02:56:16;;;;;;;43.15;24.92;;;10.10;91.10;;;;;;5014597;28;20398;-93
2023/10/27 02:58:42;;;;;;;43.72;24.42;;;10.10;91.10;;;;;;4998012;28;20394;-93
2023/10/27 03:01:14;;;;;;;41.08;24.52;;;10.10;91.10;;;;;;4997981;28;20114;-93
2023/10/27 03:03:40;;;;;;;37.72;22.60;;;10.10;91.10;;;;;;5014227;28;20113;-93
2023/10/27 03:06:05;;;;;;;40.08;24.98;;;10.10;91.10;;;;;;4998060;28;20044;-93
2023/10/27 03:08:32;;;;;;;37.78;22.73;;;10.10;91.10;;;;;;4998072;28;20124;-93
2023/10/27 03:10:58;;;;;;;43.47;23.75;;;10.10;91.10;;;;;;5014190;28;20085;-94
2023/10/27 03:13:23;;;;;;;35.90;22.10;;;10.10;91.10;;;;;;5014032;28;20495;-92
2023/10/27 03:15:49;;;;;;;36.90;22.38;;;10.10;91.10;;;;;;4998111;28;20402;-93
2023/10/27 03:18:15;;;;;;;38.67;22.77;;;10.10;91.10;;;;;;5014187;28;20049;-92
2023/10/27 03:20:40;;;;;;;35.42;22.35;;;10.10;91.10;;;;;;4998027;28;20124;-92
2023/10/27 03:23:06;;;;;;;37.80;21.27;;;10.10;91.10;;;;;;5013747;28;20042;-92
2023/10/27 03:25:31;;;;;;;34.50;19.80;;;10.10;91.10;;;;;;5014314;28;20129;-92
2023/10/27 03:27:57;;;;;;;35.88;21.25;;;10.10;91.10;;;;;;5013982;28;20172;-92
2023/10/27 03:30:23;;;;;;;35.33;21.02;;;10.10;91.10;;;;;;4997871;28;20033;-93
2023/10/27 03:32:48;;;;;;;34.25;21.00;;;10.10;91.10;;;;;;4997870;28;20092;-91
2023/10/27 03:35:16;;;;;;;37.15;21.27;;;10.10;91.10;;;;;;5016822;28;20048;-90
2023/10/27 03:37:41;;;;;;;35.97;20.92;;;10.20;91.10;;;;;;5024524;28;20037;-92
2023/10/27 03:40:07;;;;;;;32.30;20.45;;;10.10;91.10;;;;;;4998623;28;20410;-91
2023/10/27 03:42:33;;;;;;;35.30;21.25;;;10.10;91.10;;;;;;5014015;28;20038;-91
2023/10/27 03:44:59;;;;;;;34.45;21.80;;;10.10;91.10;;;;;;5019965;28;20046;-90
2023/10/27 03:47:25;;;;;;;34.75;21.60;;;10.10;91.10;;;;;;5023090;28;20044;-94
2023/10/27 03:49:51;;;;;;;35.13;21.00;;;10.10;91.00;;;;;;5015622;28;20037;-92
2023/10/27 03:52:17;;;;;;;37.20;22.58;;;10.30;91.10;;;;;;5018029;28;20049;-93
2023/10/27 03:54:42;;;;;;;36.45;22.27;;;10.10;91.00;;;;;;5015766;28;20038;-93
2023/10/27 03:57:08;;;;;;;35.03;22.23;;;10.10;91.00;;;;;;5017143;28;20498;-94
2023/10/27 03:59:34;;;;;;;36.78;20.80;;;10.10;91.00;;;;;;5000609;28;20034;-93
2023/10/27 04:01:59;;;;;;;37.65;21.98;;;10.10;91.10;;;;;;5015615;28;20509;-93
2023/10/27 04:04:25;;;;;;;38.50;22.98;;;10.30;91.10;;;;;;5016348;28;20398;-94
2023/10/27 04:06:51;;;;;;;40.30;22.60;;;10.10;91.10;;;;;;5000014;28;20133;-94
2023/10/27 04:09:16;;;;;;;39.83;22.02;;;10.10;91.10;;;;;;5000636;28;20034;-93
2023/10/27 04:11:43;;;;;;;39.95;22.20;;;10.10;91.00;;;;;;5013209;28;20082;-94
2023/10/27 04:14:08;;;;;;;33.92;21.05;;;10.10;91.10;;;;;;5013865;28;20074;-95
2023/10/27 04:16:34;;;;;;;37.15;22.05;;;10.10;91.10;;;;;;4997694;28;20081;-94
2023/10/27 04:19:00;;;;;;;34.17;21.13;;;10.10;91.10;;;;;;5014128;28;20037;-93
2023/10/27 04:21:26;;;;;;;33.25;20.88;;;10.10;91.00;;;;;;4999294;28;20100;-92
2023/10/27 04:23:51;;;;;;;35.08;21.42;;;10.10;91.00;;;;;;4996913;28;20037;-92
2023/10/27 04:26:17;;;;;;;33.45;20.45;;;10.10;91.00;;;;;;5006768;28;20038;-92
2023/10/27 04:28:43;;;;;;;34.50;20.63;;;10.10;91.00;;;;;;4995370;28;20070;-94
2023/10/27 04:31:09;;;;;;;30.42;19.73;;;10.10;91.00;;;;;;5013724;28;20045;-94
2023/10/27 04:33:38;;;;;;;36.90;22.13;;;10.10;90.90;;;;;;4997382;28;20375;-93
2023/10/27 04:36:07;;;;;;;32.13;20.70;;;10.10;90.90;;;;;;5013401;28;20053;-93
2023/10/27 04:38:32;;;;;;;37.47;21.25;;;10.10;90.90;;;;;;4997062;28;20532;-93
2023/10/27 04:40:58;;;;;;;34.70;21.85;;;10.10;90.90;;;;;;4997790;28;20046;-93
2023/10/27 04:43:23;;;;;;;33.67;20.73;;;10.10;90.90;;;;;;4998898;28;20044;-94
2023/10/27 04:45:50;;;;;;;31.48;18.85;;;10.10;90.90;;;;;;5014265;28;20049;-94
2023/10/27 04:48:15;;;;;;;34.72;20.38;;;10.70;91.10;;;;;;4998195;28;20048;-92
2023/10/27 04:50:41;;;;;;;33.72;19.00;;;10.10;90.90;;;;;;5015451;28;20093;-92
2023/10/27 04:53:07;;;;;;;34.67;21.27;;;10.10;90.90;;;;;;5016304;28;20462;-93
2023/10/27 04:55:33;;;;;;;34.40;20.23;;;10.10;90.90;;;;;;5015940;28;20041;-93
2023/10/27 04:57:58;;;;;;;34.13;20.73;;;10.10;90.80;;;;;;5017791;28;20038;-93
2023/10/27 05:00:24;;;;;;;36.13;20.20;;;10.10;90.80;;;;;;5016987;28;20038;-93
2023/10/27 05:02:53;;;;;;;30.58;19.20;;;10.10;90.80;;;;;;5022196;28;20045;-94
2023/10/27 05:05:20;;;;;;;35.25;21.05;;;10.00;90.80;;;;;;5024641;28;20396;-94
2023/10/27 05:07:47;;;;;;;29.40;18.33;;;10.00;90.80;;;;;;4998268;28;20117;-94
2023/10/27 05:10:12;;;;;;;36.15;20.45;;;10.00;90.80;;;;;;5016790;28;20061;-94
2023/10/27 05:12:38;;;;;;;28.95;18.75;;;10.00;90.80;;;;;;4999259;28;20038;-92
2023/10/27 05:15:05;;;;;;;28.50;17.95;;;10.00;90.80;;;;;;4998644;28;20042;-93
2023/10/27 05:17:34;;;;;;;30.25;19.30;;;10.00;90.80;;;;;;5015821;28;20034;-93
2023/10/27 05:20:01;;;;;;;32.80;18.98;;;10.00;90.90;;;;;;5014552;28;20057;-92
2023/10/27 05:22:26;;;;;;;30.95;19.08;;;9.90;90.80;;;;;;4998694;28;20172;-93
2023/10/27 05:24:52;;;;;;;29.92;18.13;;;9.90;90.80;;;;;;4999872;28;20084;-93
2023/10/27 05:27:17;;;;;;;30.48;17.80;;;9.90;90.80;;;;;;5019395;28;20046;-91
2023/10/27 05:29:43;;;;;;;35.13;19.75;;;9.90;90.80;;;;;;5022984;28;20097;-94
2023/10/27 05:32:12;;;;;;;29.67;18.02;;;9.90;90.80;;;;;;5016596;28;20046;-93
2023/10/27 05:34:38;;;;;;;29.25;18.55;;;9.90;90.80;;;;;;5015152;28;20168;-94
2023/10/27 05:37:03;;;;;;;30.27;18.35;;;9.90;90.80;;;;;;5005698;28;20510;-91
2023/10/27 05:39:29;;;;;;;30.80;18.35;;;9.90;90.80;;;;;;5019860;28;20554;-94
2023/10/27 05:41:54;;;;;;;29.58;17.83;;;9.90;90.80;;;;;;4998406;28;20038;-92
2023/10/27 05:44:20;;;;;;;28.75;17.67;;;9.90;90.80;;;;;;4997468;28;20046;-93
2023/10/27 05:46:46;;;;;;;30.02;17.90;;;9.90;90.80;;;;;;5014499;28;20060;-93
2023/10/27 05:49:12;;;;;;;28.25;18.20;;;9.90;90.80;;;;;;4998657;28;20040;-93
2023/10/27 05:51:38;;;;;;;27.60;17.38;;;9.90;90.80;;;;;;5015370;28;20050;-92
2023/10/27 05:54:05;;;;;;;30.42;18.45;;;9.90;90.80;;;;;;4997062;28;20128;-93
2023/10/27 05:56:30;;;;;;;26.95;17.25;;;9.80;90.80;;;;;;5015441;28;20065;-95
2023/10/27 05:58:56;;;;;;;26.25;17.75;;;9.90;90.80;;;;;;5015572;28;20038;-94
2023/10/27 06:01:22;;;;;;;28.13;17.73;;;9.80;90.80;;;;;;5002568;28;20124;-94
2023/10/27 06:03:48;;;;;;;29.15;17.73;;;9.90;90.80;;;;;;5019503;28;20053;-94
2023/10/27 06:06:14;;;;;;;28.42;17.85;;;9.80;91.00;;;;;;5002444;28;20087;-94
2023/10/27 06:08:44;;;;;;;29.20;17.45;;;9.80;90.80;;;;;;5019208;28;20030;-94
2023/10/27 06:11:10;;;;;;;27.63;17.33;;;9.80;90.80;;;;;;5017256;28;20058;-92
2023/10/27 06:13:36;;;;;;;26.27;16.95;;;9.80;90.80;;;;;;5015694;28;20042;-90
2023/10/27 06:16:02;;;;;;;30.17;17.80;;;9.80;90.70;;;;;;5016051;28;20038;-90
2023/10/27 06:18:28;;;;;;;29.38;18.60;;;9.80;90.70;;;;;;5015074;28;20523;-90
2023/10/27 06:20:53;;;;;;;28.20;16.98;;;9.90;90.70;;;;;;5014275;28;20034;-89
2023/10/27 06:23:19;;;;;;;26.83;17.77;;;9.80;90.70;;;;;;5014610;28;20038;-90
2023/10/27 06:25:45;;;;;;;25.90;17.80;;;9.80;90.60;;;;;;5014996;28;20045;-90
2023/10/27 06:28:10;;;;;;;28.02;18.02;;;9.80;90.60;;;;;;5010975;28;20046;-90
2023/10/27 06:30:36;;;;;;;27.55;16.75;;;9.80;90.60;;;;;;4994777;28;20473;-90
2023/10/27 06:33:02;;;;;;;27.45;17.40;;;9.70;90.60;;;;;;4995396;28;20053;-90
2023/10/27 06:35:28;;;;;;;29.75;17.60;;;9.70;90.60;;;;;;4995397;28;20077;-90
2023/10/27 06:37:54;;;;;;;29.35;18.05;;;9.70;90.60;;;;;;4991101;28;20483;-89
2023/10/27 06:40:19;;;;;;;28.85;17.88;;;9.60;90.60;;;;;;4998690;28;20057;-90
2023/10/27 06:42:46;;;;;;;27.70;16.88;;;9.60;90.50;;;;;;5014804;28;20044;-90
2023/10/27 06:45:11;;;;;;;28.48;17.67;;;9.60;90.60;;;;;;5014582;28;20042;-91
2023/10/27 06:47:37;;;;;;;29.05;18.05;;;9.60;90.80;;;;;;5014133;28;20117;-91
2023/10/27 06:50:04;;;;;;;25.73;16.92;;;9.60;90.60;;;;;;4998101;28;20507;-90
2023/10/27 06:52:30;;;;;;;28.42;17.65;;;9.60;90.60;;;;;;5014202;28;20046;-90
2023/10/27 06:54:56;;;;;;;27.20;17.25;;;9.60;90.60;;;;;;5014284;28;20042;-91
2023/10/27 06:57:22;;;;;;;29.10;17.40;;;9.60;90.60;;;;;;4998311;28;20053;-90
2023/10/27 06:59:47;;;;;;;25.83;16.58;;;9.60;90.60;;;;;;4997768;28;20049;-90
2023/10/27 07:02:13;;;;;;;30.58;17.38;;;9.60;90.70;;;;;;5009958;28;20122;-92
2023/10/27 07:04:38;;;;;;;29.05;17.40;;;9.60;90.70;;;;;;4997849;28;20040;-90
2023/10/27 07:07:05;;;;;;;29.90;17.15;;;9.60;90.70;;;;;;4997667;28;20045;-91
2023/10/27 07:09:31;;;;;;;27.58;16.67;;;9.60;90.70;;;;;;4997742;28;20044;-90
2023/10/27 07:11:59;;;;;;;28.83;17.02;;;9.60;90.80;;;;;;5014124;28;20128;-91
2023/10/27 07:14:28;;;;;;;27.83;17.45;;;9.60;90.80;;;;;;5013719;28;20087;-90
2023/10/27 07:16:54;;;;;;;27.73;17.80;;;9.60;90.80;;;;;;5013962;28;20422;-90
2023/10/27 07:19:20;;;;;;;28.83;16.92;;;9.60;90.90;;;;;;5014055;28;20064;-89
2023/10/27 07:21:46;;;;;;;27.75;17.15;;;9.60;90.90;;;;;;4981116;28;20038;-89
2023/10/27 07:24:12;;;;;;;30.40;18.55;;;9.60;90.90;;;;;;4994231;28;20454;-89
2023/10/27 07:26:38;;;;;;;31.23;18.05;;;9.60;90.90;;;;;;4995271;28;20042;-91
2023/10/27 07:29:03;;;;;;;32.08;17.70;;;9.70;91.00;;;;;;4998453;28;20380;-90
2023/10/27 07:31:29;;;;;;;32.72;19.23;;;9.70;91.00;;;;;;4997643;28;20491;-91
2023/10/27 07:33:55;;;;;;;33.53;18.55;;;9.70;91.00;;;;;;5013951;28;20042;-90
2023/10/27 07:36:22;;;;;;;34.17;18.65;;;9.70;91.00;;;;;;4997146;28;20041;-95
2023/10/27 07:38:51;;;;;;;34.95;20.08;;;9.70;91.00;;;;;;5006228;28;20038;-89
2023/10/27 07:41:17;;;;;;;32.38;18.77;;;9.70;91.00;;;;;;5004357;28;20037;-90
2023/10/27 07:43:42;;;;;;;30.02;18.60;;;9.70;91.00;;;;;;4997496;28;20045;-90
2023/10/27 07:46:08;;;;;;;29.45;17.88;;;9.70;91.20;;;;;;5013291;28;20422;-90
2023/10/27 07:48:34;;;;;;;30.25;18.42;;;9.70;91.00;;;;;;5013251;28;20410;-90
2023/10/27 07:51:00;;;;;;;30.45;17.15;;;9.70;91.10;;;;;;5012848;28;20048;-89
2023/10/27 07:53:26;;;;;;;30.85;19.02;;;9.70;91.10;;;;;;5013406;28;20042;-90
2023/10/27 07:55:53;;;;;;;32.25;18.77;;;9.80;91.20;;;;;;5014435;28;20044;-89
2023/10/27 07:58:20;;;;;;;32.53;19.15;;;9.80;91.20;;;;;;4996867;28;20116;-90
2023/10/27 08:00:46;;;;;;;29.65;17.80;;;9.80;91.20;;;;;;5013240;28;20121;-89
2023/10/27 08:03:11;;;;;;;30.70;19.10;;;9.80;91.20;;;;;;5013852;28;20081;-89
2023/10/27 08:05:37;;;;;;;33.30;19.20;;;9.80;91.20;;;;;;4996931;28;20073;-90
2023/10/27 08:08:03;;;;;;;30.50;19.35;;;9.80;91.20;;;;;;5012842;28;20041;-91
2023/10/27 08:10:29;;;;;;;29.63;19.17;;;9.90;91.20;;;;;;5012808;28;20061;-89
2023/10/27 08:12:56;;;;;;;33.33;21.33;;;9.90;91.20;;;;;;5012973;28;20049;-90
2023/10/27 08:15:23;;;;;;;35.65;22.33;;;9.90;91.20;;;;;;5012827;28;20104;-90
2023/10/27 08:17:49;;;;;;;34.38;20.50;;;9.90;91.20;;;;;;5012733;28;20073;-90
2023/10/27 08:20:15;;;;;;;34.13;22.05;;;9.90;91.10;;;;;;4996541;28;20456;-90
2023/10/27 08:22:40;;;;;;;35.95;21.65;;;10.00;91.20;;;;;;5012266;28;20132;-90
2023/10/27 08:25:06;;;;;;;33.78;21.23;;;10.00;91.10;;;;;;5012884;28;20088;-90
2023/10/27 08:27:32;;;;;;;33.40;21.17;;;10.00;91.10;;;;;;5012918;28;20042;-90
2023/10/27 08:29:57;;;;;;;32.00;20.25;;;10.00;91.10;;;;;;5012802;28;20034;-90
2023/10/27 08:32:23;;;;;;;36.95;21.65;;;10.00;91.10;;;;;;4996122;28;20092;-90
2023/10/27 08:34:49;;;;;;;33.63;22.40;;;10.00;91.10;;;;;;5012401;28;20132;-90
2023/10/27 08:37:16;;;;;;;34.60;21.75;;;10.10;91.10;;;;;;4996220;28;20048;-89
2023/10/27 08:39:42;;;;;;;33.78;21.48;;;10.10;91.10;;;;;;4996430;28;20045;-90
2023/10/27 08:42:08;;;;;;;34.47;20.58;;;10.10;91.00;;;;;;5012477;28;20054;-89
2023/10/27 08:44:34;;;;;;;33.97;20.60;;;10.10;91.00;;;;;;4996032;28;20376;-90
2023/10/27 08:47:04;;;;;;;32.65;20.83;;;10.10;91.00;;;;;;5012155;28;20072;-90
2023/10/27 08:49:31;;;;;;;36.88;21.13;;;10.10;91.00;;;;;;5011971;28;20030;-90
2023/10/27 08:51:58;;;;;;;32.13;21.77;;;10.10;91.00;;;;;;4991484;28;20033;-90
2023/10/27 08:54:24;;;;;;;30.05;19.23;;;10.10;91.00;;;;;;4995952;28;20046;-89
2023/10/27 08:56:49;;;;;;;35.45;23.05;;;10.10;91.00;;;;;;4996351;28;20398;-90
2023/10/27 08:59:15;;;;;;;47.38;24.67;;;10.20;90.90;;;;;;5012366;28;20041;-91
2023/10/27 09:01:42;;;;;;;39.53;23.10;;;10.20;90.90;;;;;;5012121;28;20137;-91
2023/10/27 09:04:08;;;;;;;38.53;23.60;;;10.20;90.90;;;;;;5011359;28;20049;-89
2023/10/27 09:06:35;;;;;;;35.78;22.15;;;10.20;90.90;;;;;;5013344;28;20077;-89
2023/10/27 09:09:01;;;;;;;36.53;21.55;;;10.20;90.90;;;;;;4995875;28;20061;-91
2023/10/27 09:11:26;;;;;;;31.27;20.23;;;10.20;90.90;;;;;;5012380;28;20483;-90
2023/10/27 09:13:52;;;;;;;30.25;19.30;;;10.20;90.90;;;;;;5012268;28;20046;-90
2023/10/27 09:16:27;;;;;;;28.85;19.40;;;10.30;90.90;;;;;;4994429;28;20053;-90
2023/10/27 09:18:55;;;;;;;33.38;20.40;;;10.30;90.90;;;;;;4993086;28;20100;-90
2023/10/27 09:21:32;;;;;;;30.30;19.23;;;10.30;90.90;;;;;;5000374;28;20056;-90
2023/10/27 09:23:58;;;;;;;30.25;19.80;;;10.30;90.90;;;;;;4995798;28;20046;-90
2023/10/27 09:26:28;;;;;;;29.23;19.20;;;10.30;90.90;;;;;;5012309;28;20117;-91
2023/10/27 09:29:03;;;;;;;30.33;18.60;;;10.30;90.90;;;;;;5001957;28;20038;-91
2023/10/27 09:31:35;;;;;;;31.42;19.38;;;10.30;90.90;;;;;;4992476;28;20133;-91
2023/10/27 09:34:18;;;;;;;28.10;18.17;;;10.30;90.90;;;;;;4994744;28;20046;-91
2023/10/27 09:36:48;;;;;;;29.00;18.60;;;10.40;90.90;;;;;;4996684;28;20045;-91
2023/10/27 09:39:16;;;;;;;32.05;19.80;;;10.30;90.90;;;;;;4996870;28;20034;-91
2023/10/27 09:41:47;;;;;;;29.73;17.85;;;10.40;90.90;;;;;;4996948;28;20460;-91
2023/10/27 09:44:19;;;;;;;29.10;18.40;;;10.40;90.90;;;;;;4982189;28;20065;-92
2023/10/27 09:46:51;;;;;;;31.77;19.13;;;10.40;90.90;;;;;;4996740;28;20057;-91
2023/10/27 09:49:24;;;;;;;28.63;18.92;;;10.40;90.90;;;;;;5003348;28;20077;-91
2023/10/27 09:51:57;;;;;;;30.75;18.63;;;10.40;90.90;;;;;;5005865;28;20064;-91
2023/10/27 09:54:24;;;;;;;33.40;19.38;;;10.40;90.90;;;;;;4980846;28;20038;-92
2023/10/27 09:56:50;;;;;;;32.45;19.17;;;10.40;90.90;;;;;;4996228;28;20125;-92
2023/10/27 09:59:16;;;;;;;29.73;18.73;;;10.40;90.90;;;;;;4995831;28;20137;-91
2023/10/27 10:01:42;;;;;;;29.50;18.63;;;10.50;91.00;;;;;;4995978;28;20089;-91
2023/10/27 10:04:07;;;;;;;29.60;19.38;;;10.50;91.00;;;;;;4979720;28;20073;-93
2023/10/27 10:06:35;;;;;;;34.38;20.13;;;10.50;90.90;;;;;;4996080;28;20042;-91
2023/10/27 10:09:11;;;;;;;29.88;18.38;;;10.50;90.90;;;;;;4995892;28;20078;-91
2023/10/27 10:11:46;;;;;;;29.85;19.52;;;10.50;91.00;;;;;;5004745;28;20133;-91
2023/10/27 10:14:39;;;;;;;25.02;18.38;;;10.60;91.10;;;;;;4998754;28;20088;-89
2023/10/27 10:17:05;;;;;;;29.63;18.70;;;10.60;91.00;;;;;;4999740;28;20045;-90
2023/10/27 10:19:50;;;;;;;30.75;18.55;;;10.60;91.00;;;;;;4998849;28;20046;-90
2023/10/27 10:22:38;;;;;;;28.35;17.55;;;10.60;91.00;;;;;;5014782;28;20042;-89
2023/10/27 10:25:31;;;;;;;32.33;19.70;;;10.60;91.00;;;;;;5015483;28;20466;-90
2023/10/27 10:28:09;;;;;;;31.45;19.02;;;10.60;91.00;;;;;;4994872;28;20053;-91
2023/10/27 10:30:36;;;;;;;41.40;26.08;;;10.60;91.00;;;;;;4998964;28;20111;-91
2023/10/27 10:33:15;;;;;;;45.47;28.63;;;10.60;91.00;;;;;;5014892;28;20495;-91
2023/10/27 10:35:42;;;;;;;36.83;22.10;;;10.60;91.00;;;;;;4998611;28;20134;-91
2023/10/27 10:38:20;;;;;;;31.50;19.98;;;10.60;91.00;;;;;;4998687;28;20080;-92
2023/10/27 10:40:56;;;;;;;28.00;18.45;;;10.60;91.00;;;;;;4998486;28;20046;-91
2023/10/27 10:43:36;;;;;;;29.15;18.63;;;10.60;91.00;;;;;;4998491;28;20422;-91
2023/10/27 10:46:12;;;;;;;28.13;19.27;;;10.70;91.00;;;;;;4997940;28;20042;-92
2023/10/27 10:48:46;;;;;;;29.95;19.02;;;10.70;91.00;;;;;;5014731;28;20046;-92
2023/10/27 10:51:36;;;;;;;25.25;17.70;;;10.70;91.00;;;;;;4999468;28;20044;-89
2023/10/27 10:54:08;;;;;;;29.60;18.95;;;10.60;90.90;;;;;;5019244;28;20506;-92
2023/10/27 10:56:33;;;;;;;26.27;17.65;;;10.60;91.00;;;;;;5014502;28;20036;-93
2023/10/27 10:59:03;;;;;;;28.73;19.42;;;10.70;91.00;;;;;;4998127;28;20026;-93
2023/10/27 11:01:29;;;;;;;26.17;17.13;;;10.70;91.00;;;;;;5001658;28;20096;-91
2023/10/27 11:03:55;;;;;;;27.02;17.63;;;10.70;91.00;;;;;;5016536;28;20045;-91
2023/10/27 11:06:23;;;;;;;27.73;18.10;;;10.90;91.00;;;;;;4998324;28;20034;-92
2023/10/27 11:08:49;;;;;;;27.38;18.20;;;10.70;91.00;;;;;;4998411;28;20046;-90
2023/10/27 11:11:18;;;;;;;27.27;17.38;;;10.70;91.00;;;;;;5014205;28;20104;-92
2023/10/27 11:13:48;;;;;;;26.85;17.75;;;10.70;91.00;;;;;;4997882;28;20097;-92
2023/10/27 11:16:15;;;;;;;27.17;17.73;;;10.70;91.10;;;;;;5014225;28;20064;-91
2023/10/27 11:18:41;;;;;;;24.42;16.27;;;10.70;91.10;;;;;;5014764;28;20128;-91
2023/10/27 11:21:14;;;;;;;24.40;17.10;;;10.70;91.10;;;;;;5001936;28;20037;-91
2023/10/27 11:23:40;;;;;;;24.08;16.35;;;10.70;91.20;;;;;;4987320;28;20038;-92
2023/10/27 11:26:05;;;;;;;23.63;15.43;;;10.80;91.20;;;;;;5012181;28;20046;-92
2023/10/27 11:28:37;;;;;;;21.65;15.43;;;10.70;91.10;;;;;;5013867;28;20044;-92
2023/10/27 11:31:08;;;;;;;23.15;16.05;;;10.80;91.20;;;;;;4997701;28;20146;-92
2023/10/27 11:34:04;;;;;;;22.83;15.55;;;10.80;91.30;;;;;;5013955;28;20052;-93
2023/10/27 11:36:35;;;;;;;24.38;16.55;;;10.80;91.10;;;;;;4999317;28;20038;-94
2023/10/27 11:39:17;;;;;;;22.45;14.73;;;10.70;91.10;;;;;;4997724;28;20041;-95
2023/10/27 11:41:47;;;;;;;24.52;15.50;;;10.80;91.10;;;;;;5005754;28;20042;-95
2023/10/27 11:44:13;;;;;;;22.08;15.75;;;10.80;91.10;;;;;;4997125;28;20409;-95
2023/10/27 11:46:49;;;;;;;23.70;16.45;;;10.80;91.10;;;;;;5005922;28;20061;-95
2023/10/27 11:49:15;;;;;;;20.45;14.60;;;10.80;91.20;;;;;;4999407;28;20045;-94
2023/10/27 11:51:45;;;;;;;21.58;14.75;;;10.80;91.10;;;;;;5016220;28;20044;-94
2023/10/27 11:54:11;;;;;;;22.58;15.88;;;11.30;91.30;;;;;;5016069;28;20018;-96
2023/10/27 11:56:37;;;;;;;22.05;15.05;;;10.80;91.20;;;;;;5013532;28;20096;-95
2023/10/27 11:59:04;;;;;;;23.65;16.77;;;10.80;91.20;;;;;;5014717;28;20052;-95
2023/10/27 12:01:30;;;;;;;22.83;15.63;;;10.80;91.20;;;;;;5014192;28;20046;-95
2023/10/27 12:03:55;;;;;;;23.17;15.98;;;10.80;91.40;;;;;;5014017;28;20551;-95
2023/10/27 12:06:21;;;;;;;23.50;16.20;;;10.90;91.20;;;;;;5014571;28;20057;-95
2023/10/27 12:08:47;;;;;;;22.58;16.10;;;10.80;91.20;;;;;;5014883;28;20034;-96
2023/10/27 12:11:14;;;;;;;24.17;16.02;;;10.80;91.20;;;;;;5015532;28;20076;-95
2023/10/27 12:13:40;;;;;;;22.17;15.40;;;10.80;91.20;;;;;;5017831;28;20038;-95
2023/10/27 12:16:06;;;;;;;23.70;15.45;;;10.80;91.20;;;;;;5003940;28;20038;-95
2023/10/27 12:18:32;;;;;;;24.17;16.45;;;10.90;91.20;;;;;;5005401;28;20039;-95
2023/10/27 12:21:00;;;;;;;24.23;15.50;;;10.90;91.20;;;;;;4998799;28;20088;-96
2023/10/27 12:23:29;;;;;;;23.75;16.27;;;10.90;91.30;;;;;;4997293;28;20042;-95
2023/10/27 12:25:59;;;;;;;22.85;15.40;;;10.90;91.50;;;;;;4997178;28;20096;-95
2023/10/27 12:28:27;;;;;;;21.27;14.85;;;10.90;91.30;;;;;;5001603;28;20045;-95
2023/10/27 12:30:56;;;;;;;23.30;15.65;;;10.90;91.30;;;;;;4995326;28;20049;-95